createdAt,value
2018-07-10T00:00:02.780Z,15
2018-07-10T00:15:03.098Z,14.9
2018-07-10T00:30:02.550Z,14.9
2018-07-10T00:45:02.874Z,14.8
2018-07-10T01:00:03.215Z,14.8
2018-07-10T01:15:02.569Z,14.7
2018-07-10T01:30:02.967Z,14.6
2018-07-10T01:45:02.318Z,14.6
2018-07-10T02:00:02.698Z,14.6
2018-07-10T02:15:03.038Z,14.5
2018-07-10T02:30:02.459Z,14.5
2018-07-10T02:45:02.804Z,14.4
2018-07-10T03:00:03.177Z,14.4
2018-07-10T03:15:02.566Z,14.4
2018-07-10T03:30:02.968Z,14.4
2018-07-10T03:45:02.285Z,14.4
2018-07-10T04:00:02.596Z,14.3
2018-07-10T04:15:02.881Z,14.3
2018-07-10T04:30:02.252Z,14.3
2018-07-10T04:45:02.599Z,14.3
2018-07-10T05:00:02.892Z,14.3
2018-07-10T05:15:03.253Z,14.2
2018-07-10T05:30:02.686Z,14.3
2018-07-10T05:45:02.991Z,14.3
2018-07-10T06:00:02.376Z,14.3
2018-07-10T06:15:02.654Z,14.3
2018-07-10T06:30:03.204Z,14.3
2018-07-10T06:45:02.612Z,14.3
2018-07-10T07:00:02.903Z,14.3
2018-07-10T07:15:03.228Z,14.4
2018-07-10T07:30:02.689Z,14.3
2018-07-10T07:45:02.970Z,14.4
2018-07-10T08:00:02.350Z,14.4
2018-07-10T08:15:02.681Z,14.4
2018-07-10T08:30:03.071Z,14.3
2018-07-10T08:45:02.391Z,14.4
2018-07-10T09:00:02.693Z,14.4
2018-07-10T09:15:03.011Z,14.4
2018-07-10T09:30:02.431Z,14.4
2018-07-10T09:45:02.771Z,14.4
2018-07-10T10:00:03.127Z,14.4
2018-07-10T10:15:02.424Z,14.5
2018-07-10T10:30:02.868Z,14.5
2018-07-10T10:45:03.191Z,14.5
2018-07-10T11:00:02.560Z,14.6
2018-07-10T11:15:02.856Z,14.6
2018-07-10T11:30:02.293Z,14.8
2018-07-10T11:45:02.583Z,14.8
2018-07-10T12:00:02.880Z,14.9
2018-07-10T12:15:03.248Z,15.1
2018-07-10T12:30:02.651Z,15.2
2018-07-10T12:45:02.976Z,15.2
2018-07-10T13:00:02.345Z,15.2
2018-07-10T13:15:02.653Z,15.2
2018-07-10T13:30:03.103Z,15.3
2018-07-10T13:45:02.455Z,15.4
2018-07-10T14:00:02.783Z,15.4
2018-07-10T14:15:03.127Z,15.5
2018-07-10T14:30:02.504Z,15.5
2018-07-10T14:45:02.825Z,15.6
2018-07-10T15:00:03.164Z,15.6
2018-07-10T15:15:02.663Z,15.5
2018-07-10T15:30:03.291Z,15.5
2018-07-10T15:45:02.755Z,15.5
2018-07-10T16:00:03.113Z,15.5
2018-07-10T16:15:02.455Z,15.5
2018-07-10T16:30:02.866Z,15.5
2018-07-10T16:45:03.225Z,15.5
2018-07-10T17:00:02.545Z,15.5
2018-07-10T17:15:02.947Z,15.5
2018-07-10T17:30:02.360Z,15.5
2018-07-10T17:45:02.677Z,15.5
2018-07-10T18:00:02.992Z,15.5
2018-07-10T18:15:02.406Z,15.4
2018-07-10T18:30:02.885Z,15.4
2018-07-10T18:45:03.204Z,15.4
2018-07-10T19:00:02.537Z,15.4
2018-07-10T19:15:02.861Z,15.4
2018-07-10T19:30:02.313Z,15.4
2018-07-10T19:45:02.590Z,15.3
2018-07-10T20:00:02.872Z,15.3
2018-07-10T20:15:03.216Z,15.3
2018-07-10T20:30:02.675Z,15.2
2018-07-10T20:45:02.968Z,15.2
2018-07-10T21:00:02.339Z,15.2
2018-07-10T21:15:02.827Z,15.2
2018-07-10T21:30:03.308Z,15.2
2018-07-10T21:45:02.665Z,15.1
2018-07-10T22:00:02.972Z,15.1
2018-07-10T22:15:02.272Z,15.1
2018-07-10T22:30:02.721Z,15.1
2018-07-10T22:45:03.099Z,15.1
2018-07-10T23:00:02.391Z,15
2018-07-10T23:15:02.680Z,15
2018-07-10T23:30:03.066Z,14.9
2018-07-10T23:45:02.388Z,14.9
